Time;durP1;ratioP1;P1;durP2;ratioP2;P2;SDS_P1;SDS_P2;PMS_P1;PMS_P2;Temp;Humidity;BMP_temperature;BMP_pressure;BME280_temperature;BME280_humidity;BME280_pressure;Samples;Min_cycle;Max_cycle;Signal;HPM_P1;HPM_P2
2024/03/31 00:00:16;;;;;;;34.38;17.98;;;;;;;9.66;100.00;99459.88;5076280;28;20069;-83
2024/03/31 00:02:46;;;;;;;37.60;19.02;;;;;;;9.58;100.00;99476.81;5081436;28;20062;-83
2024/03/31 00:05:11;;;;;;;51.03;20.88;;;;;;;9.50;100.00;99472.41;5058480;28;20063;-82
2024/03/31 00:07:37;;;;;;;41.73;18.87;;;;;;;9.52;100.00;99482.88;5069027;28;20036;-83
2024/03/31 00:10:03;;;;;;;41.03;19.52;;;;;;;9.52;100.00;99496.19;5060650;28;20032;-83
2024/03/31 00:12:29;;;;;;;38.90;18.88;;;;;;;9.51;100.00;99481.22;5069110;28;20048;-83
2024/03/31 00:14:54;;;;;;;40.00;18.50;;;;;;;9.50;100.00;99482.22;5087741;28;20300;-82
2024/03/31 00:17:20;;;;;;;36.72;16.90;;;;;;;9.48;100.00;99481.59;5086449;28;20125;-82
2024/03/31 00:19:45;;;;;;;40.67;17.05;;;;;;;9.42;100.00;99482.34;5088181;28;20043;-82
2024/03/31 00:22:11;;;;;;;39.50;15.67;;;;;;;9.47;100.00;99482.59;5054025;28;20545;-83
2024/03/31 00:24:37;;;;;;;42.05;16.30;;;;;;;9.50;100.00;99479.56;5085924;28;20043;-83
2024/03/31 00:27:02;;;;;;;37.70;16.25;;;;;;;9.58;100.00;99462.66;5088951;28;20047;-82
2024/03/31 00:29:28;;;;;;;32.65;13.63;;;;;;;9.54;100.00;99440.06;5080091;28;20047;-83
2024/03/31 00:31:53;;;;;;;30.27;15.55;;;;;;;9.51;100.00;99425.28;5068422;28;20043;-82
2024/03/31 00:34:22;;;;;;;34.70;15.60;;;;;;;9.52;100.00;99422.41;5067899;28;20036;-83
2024/03/31 00:36:48;;;;;;;35.83;14.77;;;;;;;9.54;100.00;99416.09;5068235;28;20032;-82
2024/03/31 00:39:13;;;;;;;33.27;15.40;;;;;;;9.56;100.00;99424.72;5083543;28;20494;-82
2024/03/31 00:41:38;;;;;;;36.73;16.80;;;;;;;9.61;100.00;99422.31;5060481;28;20278;-82
2024/03/31 00:44:05;;;;;;;35.00;15.70;;;;;;;9.59;100.00;99409.16;5058335;28;20032;-82
2024/03/31 00:46:30;;;;;;;42.15;15.80;;;;;;;9.65;100.00;99405.75;5072345;28;20032;-82
2024/03/31 00:48:56;;;;;;;39.73;17.07;;;;;;;9.56;100.00;99388.25;5064376;28;20031;-82
2024/03/31 00:51:21;;;;;;;39.57;16.60;;;;;;;9.46;100.00;99385.88;5062805;28;20374;-82
2024/03/31 00:53:47;;;;;;;34.65;17.63;;;;;;;9.63;100.00;99389.13;5063711;28;20550;-82
2024/03/31 00:56:13;;;;;;;30.15;14.93;;;;;;;9.72;100.00;99381.84;5061898;28;20376;-83
2024/03/31 00:58:38;;;;;;;;;;;;;;;9.72;100.00;99377.34;5068619;28;20031;-83
2024/03/31 01:01:04;;;;;;;34.97;15.57;;;;;;;9.73;100.00;99365.66;5066814;28;19916;-83
2024/03/31 01:03:31;;;;;;;40.63;17.20;;;;;;;9.83;100.00;99367.16;5068657;28;20035;-82
2024/03/31 01:05:59;;;;;;;28.48;14.63;;;;;;;9.82;100.00;99358.34;5068360;28;20066;-82
2024/03/31 01:08:24;;;;;;;34.25;15.43;;;;;;;9.73;100.00;99339.00;5056500;28;20036;-82
2024/03/31 01:10:50;;;;;;;29.80;15.18;;;;;;;9.70;100.00;99333.22;5064337;28;20028;-82
2024/03/31 01:13:16;;;;;;;31.33;14.93;;;;;;;9.61;100.00;99329.88;5071470;28;20131;-82
2024/03/31 01:15:42;;;;;;;38.97;17.83;;;;;;;9.65;100.00;99338.31;5065637;28;20028;-82
2024/03/31 01:18:07;;;;;;;36.75;17.27;;;;;;;9.55;100.00;99335.94;5068116;28;20075;-82
2024/03/31 01:20:33;;;;;;;36.97;16.27;;;;;;;9.54;100.00;99336.16;5068600;28;20029;-82
2024/03/31 01:23:02;;;;;;;32.20;16.13;;;;;;;9.49;100.00;99336.72;5056158;28;20179;-83
2024/03/31 01:25:27;;;;;;;35.83;16.95;;;;;;;9.43;100.00;99342.78;5090089;28;20774;-83
2024/03/31 01:27:53;;;;;;;28.83;16.33;;;;;;;9.38;100.00;99350.53;5064508;28;20116;-82
2024/03/31 01:30:18;;;;;;;28.03;16.03;;;;;;;9.45;100.00;99373.56;5064757;28;20036;-82
2024/03/31 01:32:45;;;;;;;32.20;17.40;;;;;;;9.44;100.00;99389.75;5064339;28;20123;-82
2024/03/31 01:35:11;;;;;;;28.40;15.63;;;;;;;9.44;100.00;99389.75;5081147;28;20043;-82
2024/03/31 01:37:36;;;;;;;30.83;17.63;;;;;;;9.47;100.00;99408.00;5080506;28;20016;-82
2024/03/31 01:40:02;;;;;;;31.77;16.47;;;;;;;9.57;100.00;99407.72;5060056;28;20336;-82
2024/03/31 01:42:27;;;;;;;28.70;15.95;;;;;;;9.53;100.00;99383.28;5059579;28;20020;-83
2024/03/31 01:44:53;;;;;;;27.40;15.82;;;;;;;9.50;100.00;99381.84;5063442;28;20402;-82
2024/03/31 01:47:19;;;;;;;31.55;16.05;;;;;;;9.54;100.00;99381.44;5070727;28;20020;-83
2024/03/31 01:49:44;;;;;;;31.43;16.00;;;;;;;9.37;100.00;99370.22;5064064;28;20973;-82
2024/03/31 01:52:09;;;;;;;37.27;15.13;;;;;;;9.51;100.00;99401.31;5085936;28;20024;-83
2024/03/31 01:54:37;;;;;;;25.57;15.20;;;;;;;9.49;100.00;99376.69;5067517;28;20436;-83
2024/03/31 01:57:04;;;;;;;28.73;15.63;;;;;;;9.57;100.00;99373.88;5066705;28;20196;-82
2024/03/31 01:59:29;;;;;;;21.58;15.13;;;;;;;9.40;100.00;99375.16;5067855;28;20035;-82
2024/03/31 02:01:54;;;;;;;32.00;16.43;;;;;;;9.44;100.00;99382.59;5083183;28;20032;-82
2024/03/31 02:04:20;;;;;;;34.22;15.68;;;;;;;9.41;100.00;99392.78;5070225;28;20066;-82
2024/03/31 02:06:45;;;;;;;29.77;15.63;;;;;;;9.43;100.00;99380.09;5091286;28;20035;-82
2024/03/31 02:09:10;;;;;;;29.90;16.17;;;;;;;9.39;100.00;99378.81;5061518;28;20437;-83
2024/03/31 02:11:36;;;;;;;31.63;15.50;;;;;;;9.29;100.00;99374.63;5080692;28;20144;-82
2024/03/31 02:14:01;;;;;;;26.07;15.73;;;;;;;9.24;100.00;99370.88;5091088;28;20056;-82
2024/03/31 02:16:27;;;;;;;24.90;16.53;;;;;;;9.23;100.00;99385.22;5091307;28;20097;-82
2024/03/31 02:18:52;;;;;;;26.20;15.80;;;;;;;9.26;100.00;99385.66;5074000;28;20121;-83
2024/03/31 02:21:17;;;;;;;27.17;14.60;;;;;;;9.20;100.00;99364.25;5074448;28;20057;-83
2024/03/31 02:23:43;;;;;;;24.90;14.53;;;;;;;9.21;100.00;99365.94;5074093;28;20085;-82
2024/03/31 02:26:08;;;;;;;26.97;15.63;;;;;;;9.13;100.00;99358.03;5074137;28;20278;-82
2024/03/31 02:28:35;;;;;;;22.53;14.20;;;;;;;9.10;100.00;99364.56;5083875;28;20024;-82
2024/03/31 02:31:01;;;;;;;25.10;15.77;;;;;;;9.12;100.00;99381.19;5082786;28;20031;-83
2024/03/31 02:33:27;;;;;;;23.52;14.88;;;;;;;9.02;100.00;99385.97;5072949;28;20023;-82
2024/03/31 02:35:53;;;;;;;24.90;14.55;;;;;;;9.11;100.00;99398.19;5078302;28;20024;-82
2024/03/31 02:38:20;;;;;;;26.80;14.20;;;;;;;9.05;100.00;99381.09;5073690;28;20021;-83
2024/03/31 02:40:45;;;;;;;27.07;14.67;;;;;;;9.01;100.00;99371.84;5073531;28;20036;-82
2024/03/31 02:43:11;;;;;;;25.67;15.10;;;;;;;8.95;100.00;99385.06;5073109;28;21024;-83
2024/03/31 02:45:36;;;;;;;22.97;14.30;;;;;;;8.98;100.00;99395.34;5073457;28;20035;-82
2024/03/31 02:48:02;;;;;;;28.77;16.10;;;;;;;8.98;100.00;99390.00;5073802;28;20052;-82
2024/03/31 02:50:28;;;;;;;31.33;16.75;;;;;;;8.80;100.00;99396.56;5065568;28;20028;-82
2024/03/31 02:52:54;;;;;;;27.13;16.80;;;;;;;8.90;100.00;99424.69;5066516;28;20106;-83
2024/03/31 02:55:19;;;;;;;32.33;17.77;;;;;;;8.82;100.00;99428.28;5054278;28;20422;-82
2024/03/31 02:57:48;;;;;;;29.80;16.53;;;;;;;8.86;100.00;99442.88;5087961;28;20047;-83
2024/03/31 03:00:16;;;;;;;32.55;16.90;;;;;;;8.81;100.00;99432.78;5073259;28;20126;-83
2024/03/31 03:02:41;;;;;;;31.95;18.58;;;;;;;8.73;100.00;99422.22;5072111;28;20023;-83
2024/03/31 03:05:08;;;;;;;33.35;16.88;;;;;;;8.67;100.00;99436.28;5073317;28;20043;-82
2024/03/31 03:07:34;;;;;;;30.20;17.10;;;;;;;8.69;100.00;99436.91;5089962;28;20024;-82
2024/03/31 03:09:59;;;;;;;30.67;19.35;;;;;;;8.72;100.00;99447.19;5046821;23;20106;-77
2024/03/31 03:12:25;;;;;;;27.33;17.87;;;;;;;8.68;100.00;99439.75;5045879;28;20127;-76
2024/03/31 03:14:54;;;;;;;27.43;16.70;;;;;;;8.65;100.00;99454.25;5044825;28;20628;-76
2024/03/31 03:17:20;;;;;;;33.00;20.33;;;;;;;8.55;100.00;99451.03;5026184;28;20021;-77
2024/03/31 03:19:47;;;;;;;34.90;17.77;;;;;;;8.55;100.00;99461.66;5042932;28;20611;-76
2024/03/31 03:22:13;;;;;;;42.25;21.27;;;;;;;8.42;100.00;99463.09;5066727;23;20050;-89
2024/03/31 03:24:38;;;;;;;;;;;;;;;8.48;100.00;99477.53;5015139;28;20483;-89
2024/03/31 03:27:04;;;;;;;38.45;19.92;;;;;;;8.39;100.00;99478.56;5036286;28;19999;-89
2024/03/31 03:29:29;;;;;;;41.33;20.93;;;;;;;8.36;100.00;99489.56;5016660;28;20064;-89
2024/03/31 03:31:55;;;;;;;47.25;25.20;;;;;;;8.32;100.00;99481.09;5018367;28;20355;-91
2024/03/31 03:34:20;;;;;;;42.67;22.53;;;;;;;8.25;100.00;99466.88;5018325;28;20042;-89
2024/03/31 03:36:47;;;;;;;46.70;25.23;;;;;;;8.22;100.00;99489.34;5026693;28;20307;-89
2024/03/31 03:39:16;;;;;;;41.70;20.97;;;;;;;8.08;100.00;99499.88;5016685;28;20041;-89
2024/03/31 03:41:41;;;;;;;51.15;24.52;;;;;;;8.21;100.00;99526.72;5016080;28;20033;-88
2024/03/31 03:44:07;;;;;;;52.23;23.63;;;;;;;8.15;100.00;99509.66;4993078;28;20041;-89
2024/03/31 03:46:32;;;;;;;42.07;23.30;;;;;;;8.04;100.00;99507.41;5002316;28;20026;-89
2024/03/31 03:48:57;;;;;;;50.70;24.37;;;;;;;8.08;100.00;99513.19;5025509;28;20837;-89
2024/03/31 03:51:23;;;;;;;53.23;24.83;;;;;;;7.97;100.00;99506.47;5018151;28;20045;-91
2024/03/31 03:53:48;;;;;;;52.55;23.63;;;;;;;7.93;100.00;99505.16;4991876;28;20265;-88
2024/03/31 03:56:14;;;;;;;43.53;22.42;;;;;;;8.01;100.00;99523.72;5014685;28;20037;-88
2024/03/31 03:58:39;;;;;;;50.40;23.93;;;;;;;8.06;100.00;99525.84;5011595;28;20029;-89
2024/03/31 04:01:05;;;;;;;41.13;21.80;;;;;;;8.11;100.00;99518.97;5012716;28;20783;-91
2024/03/31 04:03:30;;;;;;;51.40;25.53;;;;;;;8.07;100.00;99514.19;5019703;28;20037;-90
2024/03/31 04:05:56;;;;;;;49.10;24.60;;;;;;;8.12;100.00;99517.16;5012916;28;20490;-90
2024/03/31 04:08:21;;;;;;;53.25;25.38;;;;;;;8.02;100.00;99517.38;5004463;28;20017;-90
2024/03/31 04:10:47;;;;;;;49.53;26.33;;;;;;;8.13;100.00;99527.63;5002558;28;20041;-89
2024/03/31 04:13:14;;;;;;;53.42;26.15;;;;;;;8.17;100.00;99528.06;4993249;28;20032;-89
2024/03/31 04:15:39;;;;;;;44.20;23.55;;;;;;;8.14;100.00;99518.63;4994340;28;20322;-90
2024/03/31 04:18:05;;;;;;;;;;;;;;;8.19;100.00;99534.03;5020103;28;20030;-89
2024/03/31 04:20:31;;;;;;;56.03;26.02;;;;;;;8.25;100.00;99530.69;5022004;28;19960;-89
2024/03/31 04:22:56;;;;;;;52.17;23.63;;;;;;;8.21;100.00;99524.88;5012535;28;20035;-89
2024/03/31 04:25:22;;;;;;;54.57;24.60;;;;;;;8.27;100.00;99519.88;5014852;28;20535;-87
2024/03/31 04:27:47;;;;;;;57.33;24.67;;;;;;;8.14;100.00;99510.66;5017117;28;20281;-89
2024/03/31 04:30:13;;;;;;;54.83;25.30;;;;;;;8.05;100.00;99517.03;5026541;28;20300;-91
2024/03/31 04:32:38;;;;;;;51.33;24.70;;;;;;;8.21;100.00;99529.38;5023109;28;20042;-89
2024/03/31 04:35:04;;;;;;;56.60;24.87;;;;;;;8.18;100.00;99519.09;5025822;28;21002;-89
2024/03/31 04:37:29;;;;;;;50.83;25.17;;;;;;;8.21;100.00;99516.09;5017984;28;20840;-90
2024/03/31 04:39:55;;;;;;;51.08;23.40;;;;;;;8.25;100.00;99514.75;4995923;28;20033;-90
2024/03/31 04:42:21;;;;;;;58.05;24.80;;;;;;;8.04;100.00;99508.22;5020429;28;20051;-89
2024/03/31 04:44:49;;;;;;;52.25;24.20;;;;;;;8.10;100.00;99519.16;5024968;28;20036;-88
2024/03/31 04:47:15;;;;;;;52.78;23.65;;;;;;;8.09;100.00;99520.16;4992714;28;20033;-89
2024/03/31 04:49:41;;;;;;;52.63;25.23;;;;;;;8.13;100.00;99524.13;4994126;28;20029;-89
2024/03/31 04:52:08;;;;;;;54.42;26.10;;;;;;;8.10;100.00;99517.34;5017217;28;20036;-88
2024/03/31 04:54:33;;;;;;;53.97;26.95;;;;;;;8.15;100.00;99514.16;4994154;28;20026;-88
2024/03/31 04:56:59;;;;;;;52.80;25.58;;;;;;;8.28;100.00;99524.19;4995967;28;20087;-88
2024/03/31 04:59:24;;;;;;;65.87;27.57;;;;;;;8.20;100.00;99506.47;5029326;28;20053;-90
2024/03/31 05:01:50;;;;;;;58.17;24.40;;;;;;;8.22;100.00;99515.09;5011618;28;20041;-89
2024/03/31 05:04:15;;;;;;;59.58;26.38;;;;;;;8.27;100.00;99506.59;5004709;28;20544;-89
2024/03/31 05:06:41;;;;;;;53.88;25.63;;;;;;;8.22;100.00;99504.47;5010928;28;20025;-89
2024/03/31 05:09:07;;;;;;;62.67;26.40;;;;;;;8.28;100.00;99510.91;4992354;28;20038;-89
2024/03/31 05:11:32;;;;;;;54.70;25.85;;;;;;;8.23;100.00;99503.44;5004170;28;20064;-88
2024/03/31 05:13:59;;;;;;;51.65;24.95;;;;;;;8.24;100.00;99518.38;5008276;28;20843;-91
2024/03/31 05:16:26;;;;;;;51.40;24.80;;;;;;;8.31;100.00;99513.19;5007784;28;20052;-89
2024/03/31 05:18:54;;;;;;;47.80;24.08;;;;;;;8.28;100.00;99519.69;5017202;28;20053;-89
2024/03/31 05:21:19;;;;;;;61.53;26.65;;;;;;;8.29;100.00;99516.03;5009456;28;20033;-88
2024/03/31 05:23:46;;;;;;;53.33;26.35;;;;;;;8.24;100.00;99515.72;5008033;28;20095;-89
2024/03/31 05:26:15;;;;;;;47.50;23.80;;;;;;;8.31;100.00;99532.66;5015472;28;20030;-88
2024/03/31 05:28:46;;;;;;;57.75;27.73;;;;;;;8.23;100.00;99532.69;5011488;28;20040;-88
2024/03/31 05:31:12;;;;;;;56.80;24.40;;;;;;;8.26;100.00;99548.28;5025900;28;20419;-88
2024/03/31 05:33:50;;;;;;;57.33;25.13;;;;;;;8.26;100.00;99545.63;5009209;28;20026;-89
2024/03/31 05:36:16;;;;;;;54.07;26.70;;;;;;;8.23;100.00;99548.66;4992226;28;20588;-88
2024/03/31 05:38:41;;;;;;;52.20;23.85;;;;;;;8.34;100.00;99564.19;4991602;28;20037;-88
2024/03/31 05:41:12;;;;;;;50.40;22.15;;;;;;;8.32;100.00;99546.78;4994990;28;20034;-89
2024/03/31 05:43:37;;;;;;;47.90;22.50;;;;;;;8.37;100.00;99550.53;5010061;28;20396;-89
2024/03/31 05:46:03;;;;;;;46.45;23.33;;;;;;;8.39;100.00;99555.69;5003895;28;20081;-89
2024/03/31 05:48:28;;;;;;;48.43;21.87;;;;;;;8.44;100.00;99562.16;5020203;28;20424;-89
2024/03/31 05:50:54;;;;;;;44.15;22.75;;;;;;;8.47;100.00;99566.28;5008387;28;20034;-90
2024/03/31 05:53:22;;;;;;;43.05;20.80;;;;;;;8.48;100.00;99575.13;4992085;28;20045;-90
2024/03/31 05:55:47;;;;;;;36.33;20.02;;;;;;;8.47;100.00;99573.44;5008065;28;20030;-90
2024/03/31 05:58:13;;;;;;;43.03;20.42;;;;;;;8.20;100.00;99555.16;4991710;28;20366;-89
2024/03/31 06:00:39;;;;;;;42.10;18.95;;;;;;;8.33;100.00;99575.81;4992030;28;20144;-90
2024/03/31 06:03:05;;;;;;;45.20;19.42;;;;;;;8.39;100.00;99574.31;5010486;28;20116;-90
2024/03/31 06:05:31;;;;;;;41.72;19.33;;;;;;;8.31;100.00;99566.38;5011732;28;20116;-90
2024/03/31 06:07:56;;;;;;;36.20;17.33;;;;;;;8.30;100.00;99562.88;5003066;28;20112;-89
2024/03/31 06:10:22;;;;;;;35.00;18.00;;;;;;;8.29;100.00;99569.22;5011142;28;20030;-90
2024/03/31 06:12:51;;;;;;;33.38;16.77;;;;;;;8.44;100.00;99588.75;5019596;28;20040;-89
2024/03/31 06:15:16;;;;;;;;;;;;;;;8.54;100.00;99582.38;5012105;28;20558;-90
2024/03/31 06:17:42;;;;;;;35.10;16.98;;;;;;;8.49;100.00;99572.25;5017687;28;19917;-92
2024/03/31 06:20:08;;;;;;;;;;;;;;;8.42;100.00;99558.84;5047313;28;20048;-89
2024/03/31 06:22:41;;;;;;;39.28;18.92;;;;;;;8.44;100.00;99554.16;4999770;28;19913;-90
2024/03/31 06:25:07;;;;;;;30.20;16.70;;;;;;;8.49;100.00;99550.97;4997202;28;20084;-89
2024/03/31 06:27:34;;;;;;;34.22;18.40;;;;;;;8.34;100.00;99547.44;4997267;28;20022;-88
2024/03/31 06:30:00;;;;;;;32.80;14.98;;;;;;;8.37;100.00;99549.72;4997316;28;20037;-88
2024/03/31 06:32:26;;;;;;;36.88;17.08;;;;;;;8.45;100.00;99544.34;5003674;28;20567;-90
2024/03/31 06:34:52;;;;;;;33.05;16.70;;;;;;;8.35;100.00;99511.84;5013838;28;20022;-89
2024/03/31 06:37:18;;;;;;;27.40;14.32;;;;;;;8.41;100.00;99533.25;5019317;28;20032;-88
2024/03/31 06:39:46;;;;;;;26.17;13.32;;;;;;;8.51;100.00;99535.69;5024727;28;20519;-89
2024/03/31 06:42:12;;;;;;;25.87;13.80;;;;;;;8.47;100.00;99513.09;4996664;28;20026;-88
2024/03/31 06:44:38;;;;;;;25.70;14.07;;;;;;;8.48;100.00;99497.97;5013157;28;20041;-89
2024/03/31 06:47:04;;;;;;;25.50;13.43;;;;;;;8.52;100.00;99501.91;5006441;28;20126;-88
2024/03/31 06:49:29;;;;;;;26.38;13.35;;;;;;;8.51;100.00;99498.44;5014969;28;20766;-89
2024/03/31 06:51:57;;;;;;;28.13;13.93;;;;;;;8.55;100.00;99494.41;5027275;28;20037;-90
2024/03/31 06:54:23;;;;;;;29.38;14.93;;;;;;;8.20;100.00;99472.72;5012530;28;20285;-90
2024/03/31 06:56:48;;;;;;;30.50;15.73;;;;;;;8.31;100.00;99498.09;4994721;28;20120;-90
2024/03/31 06:59:14;;;;;;;24.90;14.10;;;;;;;8.30;100.00;99498.25;5002572;28;20750;-86
2024/03/31 07:01:39;;;;;;;26.20;14.52;;;;;;;8.35;100.00;99501.19;5022119;28;20076;-89
2024/03/31 07:04:05;;;;;;;26.87;13.93;;;;;;;8.08;100.00;99468.00;5003840;28;20083;-89
2024/03/31 07:06:30;;;;;;;26.42;14.55;;;;;;;8.38;100.00;99508.81;4999355;28;20281;-89
2024/03/31 07:08:56;;;;;;;26.90;12.83;;;;;;;8.31;100.00;99497.22;5019192;28;20053;-88
2024/03/31 07:11:21;;;;;;;27.73;14.45;;;;;;;8.24;100.00;99487.31;5000891;28;20630;-89
2024/03/31 07:13:47;;;;;;;22.52;13.13;;;;;;;8.39;100.00;99510.47;5014693;28;20068;-89
2024/03/31 07:16:12;;;;;;;26.67;13.88;;;;;;;8.41;100.00;99501.34;5020454;28;20565;-89
2024/03/31 07:18:38;;;;;;;35.22;17.05;;;;;;;8.42;100.00;99500.31;5073717;23;20099;-89
2024/03/31 07:21:11;;;;;;;28.27;13.40;;;;;;;8.44;100.00;99493.00;5005431;28;20033;-89
2024/03/31 07:26:42;;;;;;;23.48;13.25;;;;;;;8.42;100.00;99518.94;5014546;28;20120;-89
2024/03/31 07:29:11;;;;;;;27.60;13.82;;;;;;;8.30;100.00;99487.63;5021392;28;20133;-87
2024/03/31 07:31:40;;;;;;;23.90;11.88;;;;;;;8.43;100.00;99487.88;5029394;28;20135;-88
2024/03/31 07:34:05;;;;;;;23.10;11.90;;;;;;;8.33;100.00;99474.78;5012609;28;20056;-88
2024/03/31 07:36:31;;;;;;;19.10;11.30;;;;;;;8.12;100.00;99432.06;5022029;28;20476;-88
2024/03/31 07:38:57;;;;;;;23.48;11.40;;;;;;;8.31;100.00;99458.19;5014289;28;20041;-88
2024/03/31 07:41:22;;;;;;;17.60;9.77;;;;;;;8.30;100.00;99453.88;5015123;28;20033;-89
2024/03/31 07:43:48;;;;;;;16.63;9.70;;;;;;;8.41;100.00;99458.78;5010059;28;20103;-89
2024/03/31 07:46:16;;;;;;;17.20;9.57;;;;;;;8.26;100.00;99447.25;5009632;28;20037;-90
2024/03/31 07:48:56;;;;;;;16.80;9.90;;;;;;;8.43;100.00;99471.91;5010041;28;20280;-89
2024/03/31 07:51:32;;;;;;;20.40;9.65;;;;;;;8.50;100.00;99467.53;5029273;28;20033;-90
2024/03/31 07:53:57;;;;;;;16.77;9.67;;;;;;;8.67;100.00;99476.19;5025509;28;20187;-90
2024/03/31 07:56:22;;;;;;;17.17;9.10;;;;;;;8.63;100.00;99454.41;5010844;28;20152;-90
2024/03/31 07:58:48;;;;;;;16.10;9.07;;;;;;;8.68;100.00;99437.09;5029873;28;20037;-90
2024/03/31 08:01:13;;;;;;;16.77;9.67;;;;;;;8.76;100.00;99453.00;5030663;28;20395;-89
2024/03/31 08:03:38;;;;;;;16.70;8.52;;;;;;;8.83;100.00;99452.06;5022654;28;20029;-91
2024/03/31 08:06:04;;;;;;;18.00;9.20;;;;;;;8.72;100.00;99428.56;5036741;28;20033;-90
2024/03/31 08:08:30;;;;;;;16.75;8.55;;;;;;;8.70;100.00;99440.41;5038428;28;20033;-91
2024/03/31 08:10:55;;;;;;;17.98;8.68;;;;;;;8.80;100.00;99449.78;5041119;28;20026;-89
2024/03/31 08:13:21;;;;;;;17.20;8.70;;;;;;;8.92;100.00;99451.97;5030894;28;20056;-90
2024/03/31 08:15:46;;;;;;;12.52;7.43;;;;;;;8.98;100.00;99441.41;5029263;28;20102;-89
2024/03/31 08:18:19;;;;;;;10.67;7.13;;;;;;;9.00;100.00;99433.25;5018153;28;20451;-90
2024/03/31 08:20:48;;;;;;;15.68;8.30;;;;;;;8.94;100.00;99408.19;5023137;28;20041;-89
2024/03/31 08:23:40;;;;;;;15.85;8.70;;;;;;;8.98;100.00;99396.16;5012430;28;20901;-89
2024/03/31 08:26:12;;;;;;;12.20;7.95;;;;;;;9.02;100.00;99389.47;5006820;28;20381;-89
2024/03/31 08:28:56;;;;;;;18.17;9.43;;;;;;;9.04;100.00;99399.94;5015095;28;20044;-90
2024/03/31 08:32:07;;;;;;;;;;;;;;;;;;;;;
2024/03/31 08:35:25;;;;;;;15.13;7.45;;;;;;;9.28;100.00;99399.59;5026601;28;20029;-88
2024/03/31 08:38:01;;;;;;;12.88;6.88;;;;;;;9.19;100.00;99370.63;5016730;28;20046;-89
2024/03/31 08:44:17;;;;;;;12.77;7.88;;;;;;;9.28;100.00;99334.88;4998775;28;20033;-90
2024/03/31 08:46:43;;;;;;;13.23;7.72;;;;;;;9.31;100.00;99339.81;5027964;28;20434;-90
2024/03/31 08:49:10;;;;;;;13.60;8.07;;;;;;;9.26;100.00;99327.06;5023491;28;20021;-89
2024/03/31 08:52:32;;;;;;;;;;;;;;;;;;;;;
2024/03/31 08:55:13;;;;;;;15.35;8.68;;;;;;;9.28;100.00;99346.34;5020751;28;20033;-88
2024/03/31 08:57:38;;;;;;;14.65;8.13;;;;;;;9.29;100.00;99329.38;5008376;28;20103;-89
2024/03/31 09:00:05;;;;;;;17.67;8.77;;;;;;;9.29;100.00;99315.19;5011130;28;20032;-89
2024/03/31 09:02:30;;;;;;;;;;;;;;;9.23;100.00;99303.47;5017734;28;20511;-91
2024/03/31 09:04:55;;;;;;;13.40;8.45;;;;;;;9.15;100.00;99290.25;5027334;28;19962;-90
2024/03/31 09:07:21;;;;;;;14.93;8.80;;;;;;;9.12;100.00;99327.09;5036572;28;20047;-90
2024/03/31 09:09:46;;;;;;;14.93;8.63;;;;;;;9.24;100.00;99357.56;5040706;23;20096;-77
2024/03/31 09:12:12;;;;;;;13.27;7.20;;;;;;;9.23;100.00;99354.06;5060532;28;20079;-77
2024/03/31 09:14:38;;;;;;;14.63;8.10;;;;;;;9.31;100.00;99339.81;5036635;28;20685;-78
2024/03/31 09:17:10;;;;;;;;;;;;;;;9.21;100.00;99334.78;5024772;28;20857;-78
2024/03/31 09:19:36;;;;;;;14.73;9.07;;;;;;;9.02;100.00;99346.03;5036694;28;20278;-78
2024/03/31 09:24:39;;;;;;;20.13;10.20;;;;;;;9.05;100.00;99356.31;4974699;28;20078;-78
2024/03/31 09:27:05;;;;;;;18.83;10.82;;;;;;;9.16;100.00;99378.97;4987901;28;20034;-77
2024/03/31 09:29:30;;;;;;;18.13;10.40;;;;;;;9.00;100.00;99390.66;4975165;28;20043;-78
2024/03/31 09:32:13;;;;;;;17.70;10.63;;;;;;;9.25;100.00;99428.47;4995462;28;20185;-78
2024/03/31 09:34:42;;;;;;;20.08;10.88;;;;;;;9.46;100.00;99430.34;4950519;28;20038;-79
2024/03/31 09:37:09;;;;;;;18.42;9.70;;;;;;;9.54;100.00;99424.91;4963329;28;20031;-78
2024/03/31 09:39:35;;;;;;;18.80;8.88;;;;;;;9.45;100.00;99404.72;4955866;28;20106;-77
2024/03/31 09:42:00;;;;;;;18.40;9.57;;;;;;;9.54;100.00;99410.75;4950391;28;20095;-77
2024/03/31 09:44:26;;;;;;;17.60;9.57;;;;;;;9.66;100.00;99417.25;4962388;28;20854;-78
2024/03/31 09:46:53;;;;;;;18.02;9.43;;;;;;;9.84;100.00;99420.28;4963859;28;20521;-79
2024/03/31 09:49:25;;;;;;;21.42;10.02;;;;;;;9.95;100.00;99408.31;4949183;28;20114;-78
2024/03/31 09:51:55;;;;;;;21.67;11.40;;;;;;;9.93;100.00;99402.34;4966573;28;20043;-78
2024/03/31 09:54:31;;;;;;;16.92;10.27;;;;;;;9.92;100.00;99403.34;4965695;28;20080;-79
2024/03/31 09:57:02;;;;;;;;;;;;;;;9.96;100.00;99385.13;4975971;28;20035;-78
2024/03/31 09:59:29;;;;;;;18.60;10.07;;;;;;;9.95;100.00;99365.66;4968936;28;20016;-78
2024/03/31 10:01:56;;;;;;;17.65;10.25;;;;;;;9.99;100.00;99374.91;4968519;28;20040;-78
2024/03/31 10:04:31;;;;;;;20.27;11.70;;;;;;;9.97;100.00;99370.78;4977318;28;20039;-77
2024/03/31 10:06:58;;;;;;;20.60;10.18;;;;;;;9.92;100.00;99388.16;4950455;28;20063;-78
2024/03/31 10:09:24;;;;;;;18.83;9.75;;;;;;;9.93;100.00;99397.81;4981312;28;20038;-75
2024/03/31 10:11:52;;;;;;;20.60;10.45;;;;;;;9.69;100.00;99372.41;4969912;28;20027;-77
2024/03/31 10:14:19;;;;;;;19.73;10.48;;;;;;;9.83;100.00;99401.81;4974382;28;20035;-77
2024/03/31 10:16:47;;;;;;;21.42;10.65;;;;;;;9.98;100.00;99409.78;4955004;28;20035;-78
2024/03/31 10:19:14;;;;;;;17.77;10.13;;;;;;;9.83;100.00;99370.69;4963236;28;20033;-78
2024/03/31 10:21:41;;;;;;;19.00;10.95;;;;;;;9.81;100.00;99377.19;4955961;28;20050;-78
2024/03/31 10:24:09;;;;;;;19.20;9.75;;;;;;;9.98;100.00;99423.91;4963282;28;20038;-78
2024/03/31 10:26:36;;;;;;;18.98;10.55;;;;;;;10.06;100.00;99434.44;4973982;28;20034;-78
2024/03/31 10:29:03;;;;;;;17.52;9.20;;;;;;;10.03;100.00;99418.84;4972811;28;20506;-78
2024/03/31 10:31:28;;;;;;;18.92;9.98;;;;;;;10.06;100.00;99431.78;4965878;28;20023;-76
2024/03/31 10:33:55;;;;;;;21.97;9.73;;;;;;;10.21;100.00;99449.53;4951348;28;20039;-77
2024/03/31 10:36:21;;;;;;;19.02;9.50;;;;;;;10.22;100.00;99435.22;4971712;28;20282;-78
2024/03/31 10:38:46;;;;;;;17.92;10.35;;;;;;;10.24;100.00;99395.84;4969277;28;20035;-78
2024/03/31 10:41:12;;;;;;;21.37;10.80;;;;;;;10.25;100.00;99378.78;4965570;28;20036;-78
2024/03/31 10:43:38;;;;;;;16.33;9.48;;;;;;;10.26;100.00;99370.63;4955954;28;20662;-78
2024/03/31 10:46:04;;;;;;;;;;;;;;;10.32;100.00;99366.38;4968510;28;20055;-77
2024/03/31 10:48:30;;;;;;;19.30;10.27;;;;;;;10.17;100.00;99318.44;4953053;28;19915;-78
2024/03/31 10:50:56;;;;;;;15.43;9.90;;;;;;;10.16;100.00;99332.81;4953525;28;20042;-78
2024/03/31 10:53:27;;;;;;;18.25;9.68;;;;;;;10.25;100.00;99320.94;4966386;28;20442;-78
2024/03/31 10:55:53;;;;;;;20.67;9.75;;;;;;;10.29;100.00;99321.41;4952310;28;20038;-77
2024/03/31 10:58:18;;;;;;;18.47;9.00;;;;;;;10.24;100.00;99313.97;4978334;28;20034;-78
2024/03/31 11:00:44;;;;;;;19.00;9.83;;;;;;;10.24;100.00;99302.47;4967309;28;20039;-76
2024/03/31 11:03:10;;;;;;;19.10;11.18;;;;;;;10.37;100.00;99321.25;4954908;28;20329;-78
2024/03/31 11:05:37;;;;;;;;;;;;;;;10.23;100.00;99285.66;4968347;28;20406;-79
2024/03/31 11:08:03;;;;;;;16.88;9.65;;;;;;;10.31;100.00;99317.53;4959971;28;20609;-78
2024/03/31 11:10:31;;;;;;;17.20;9.60;;;;;;;10.58;100.00;99384.38;4965505;28;20028;-76
2024/03/31 11:12:56;;;;;;;18.50;9.40;;;;;;;10.61;100.00;99368.00;4970119;28;20038;-78
2024/03/31 11:15:22;;;;;;;16.73;8.98;;;;;;;10.65;100.00;99352.41;4975739;28;20437;-77
2024/03/31 11:17:48;;;;;;;13.65;8.30;;;;;;;10.64;100.00;99342.75;4961319;28;20101;-78
2024/03/31 11:20:14;;;;;;;;;;;;;;;10.64;100.00;99322.22;4966835;28;20121;-76
2024/03/31 11:22:40;;;;;;;16.20;9.30;;;;;;;10.67;100.00;99315.66;4965944;28;20350;-77
2024/03/31 11:25:08;;;;;;;16.58;9.02;;;;;;;10.75;100.00;99259.47;4971247;28;20538;-77
2024/03/31 11:27:35;;;;;;;15.85;8.63;;;;;;;10.71;100.00;99231.50;4965638;28;20039;-77
2024/03/31 11:30:01;;;;;;;;;;;;;;;10.77;100.00;99234.22;4951121;28;20023;-77
2024/03/31 11:32:26;;;;;;;19.17;9.05;;;;;;;10.73;100.00;99243.63;4951262;28;20292;-78